Time;durP1;ratioP1;P1;durP2;ratioP2;P2;SDS_P1;SDS_P2;PMS_P1;PMS_P2;Temp;Humidity;BMP_temperature;BMP_pressure;BME280_temperature;BME280_humidity;BME280_pressure;Samples;Min_cycle;Max_cycle;Signal;HPM_P1;HPM_P2
2022/03/10 00:00:32;;;;;;;0.30;0.30;;;;;;;2.14;57.96;95327.13;5132930;27;20457;-56
2022/03/10 00:03:00;;;;;;;0.30;0.30;;;;;;;2.47;63.13;95332.78;5133182;27;20423;-56
2022/03/10 00:05:29;;;;;;;0.30;0.20;;;;;;;2.18;54.36;95341.34;5133070;27;20422;-56
2022/03/10 00:07:57;;;;;;;0.30;0.30;;;;;;;2.17;53.25;95313.59;5133237;28;20498;-56
2022/03/10 00:10:26;;;;;;;0.57;0.57;;;;;;;2.23;71.98;95304.88;5132863;28;20462;-56
2022/03/10 00:12:54;;;;;;;0.53;0.53;;;;;;;2.54;56.45;95333.50;5133109;28;20477;-57
2022/03/10 00:15:24;;;;;;;0.30;0.20;;;;;;;3.01;59.82;95320.66;5132777;28;20462;-56
2022/03/10 00:17:54;;;;;;;0.30;0.20;;;;;;;2.35;53.61;95303.13;5132870;28;20483;-56
2022/03/10 00:20:24;;;;;;;0.67;0.67;;;;;;;2.82;58.95;95325.13;5133184;27;20509;-56
2022/03/10 00:22:55;;;;;;;0.30;0.20;;;;;;;2.05;51.82;95325.78;5132760;28;20905;-57
2022/03/10 00:25:24;;;;;;;0.30;0.20;;;;;;;2.09;54.58;95328.78;5132613;28;20426;-56
2022/03/10 00:27:52;;;;;;;0.30;0.27;;;;;;;2.34;54.57;95309.41;5132603;27;20923;-56
2022/03/10 00:30:20;;;;;;;0.20;0.20;;;;;;;2.35;55.74;95260.50;5132889;28;20948;-56
2022/03/10 00:32:51;;;;;;;0.20;0.20;;;;;;;2.18;58.14;95322.22;5132826;27;20941;-56
2022/03/10 00:35:22;;;;;;;0.20;0.20;;;;;;;2.43;62.57;95325.59;5133037;28;20466;-56
2022/03/10 00:37:57;;;;;;;0.30;0.20;;;;;;;2.60;76.19;95307.50;5132197;27;20426;-56
2022/03/10 00:40:26;;;;;;;0.30;0.30;;;;;;;2.35;63.44;95324.06;5133032;28;20414;-56
2022/03/10 00:42:55;;;;;;;0.30;0.30;;;;;;;2.45;64.86;95313.88;5132991;28;20845;-56
2022/03/10 00:45:25;;;;;;;0.20;0.20;;;;;;;1.97;54.57;95299.94;5132841;28;20469;-57
2022/03/10 00:47:54;;;;;;;0.30;0.20;;;;;;;2.16;59.80;95314.63;5132900;28;20426;-56
2022/03/10 00:50:24;;;;;;;0.30;0.20;;;;;;;2.41;56.70;95307.50;5132920;27;20461;-56
2022/03/10 00:52:53;;;;;;;1.90;0.80;;;;;;;2.82;59.54;95304.19;5132877;28;20451;-56
2022/03/10 00:55:22;;;;;;;0.20;0.20;;;;;;;2.39;54.68;95304.31;5132587;28;20454;-55
2022/03/10 00:57:50;;;;;;;0.63;0.63;;;;;;;2.29;55.29;95304.03;5132809;28;20430;-55
2022/03/10 01:00:21;;;;;;;0.67;0.60;;;;;;;2.43;59.72;95310.69;5132789;28;20494;-55
2022/03/10 01:02:50;;;;;;;0.40;0.30;;;;;;;2.47;54.13;95290.13;5132335;27;20431;-55
2022/03/10 01:05:19;;;;;;;0.27;0.23;;;;;;;1.66;62.44;95094.47;5134425;28;20492;-55
2022/03/10 01:07:49;;;;;;;0.30;0.30;;;;;;;2.95;92.65;95272.59;5133143;28;20426;-55
2022/03/10 01:10:19;;;;;;;0.67;0.67;;;;;;;2.95;56.36;95271.81;5132481;28;20423;-55
2022/03/10 01:12:48;;;;;;;0.30;0.20;;;;;;;3.01;55.57;95291.88;5132741;28;20472;-55
2022/03/10 01:15:19;;;;;;;0.20;0.20;;;;;;;2.57;53.51;95293.03;5134835;27;20561;-56
2022/03/10 01:17:47;;;;;;;0.20;0.10;;;;;;;2.61;55.88;95296.81;5136038;27;20907;-56
2022/03/10 01:20:17;;;;;;;0.20;0.20;;;;;;;2.49;56.98;95294.13;5136032;27;20453;-56
2022/03/10 01:22:45;;;;;;;0.30;0.20;;;;;;;2.15;54.94;95294.72;5135942;27;20477;-56
2022/03/10 01:25:19;;;;;;;0.20;0.20;;;;;;;2.62;55.67;95297.59;5135933;27;20427;-56
2022/03/10 01:27:48;;;;;;;0.20;0.20;;;;;;;2.25;54.61;95297.63;5135840;27;20510;-56
2022/03/10 01:30:17;;;;;;;0.40;0.40;;;;;;;2.61;55.08;95298.63;5135854;27;20914;-56
2022/03/10 01:32:46;;;;;;;0.20;0.20;;;;;;;1.91;55.30;95306.03;5136020;27;20476;-56
2022/03/10 01:35:16;;;;;;;0.20;0.20;;;;;;;1.86;56.53;95304.06;5135474;27;20472;-56
2022/03/10 01:37:45;;;;;;;0.30;0.20;;;;;;;1.79;60.94;95305.94;5135899;27;20415;-56
2022/03/10 01:40:16;;;;;;;0.20;0.20;;;;;;;1.53;58.34;95268.78;5135515;27;20453;-56
2022/03/10 01:42:47;;;;;;;0.20;0.20;;;;;;;2.15;58.68;95296.53;5135877;27;20502;-56
2022/03/10 01:45:16;;;;;;;0.30;0.20;;;;;;;1.79;57.21;95297.28;5135844;27;20479;-56
2022/03/10 01:47:45;;;;;;;0.20;0.20;;;;;;;1.22;57.87;95260.00;5135695;27;20834;-56
2022/03/10 01:50:15;;;;;;;0.50;0.50;;;;;;;1.40;57.48;95292.38;5135362;27;20466;-56
2022/03/10 01:52:44;;;;;;;0.20;0.20;;;;;;;1.11;57.65;95299.81;5135389;27;20842;-56
2022/03/10 01:55:13;;;;;;;0.87;0.87;;;;;;;1.53;62.42;95297.50;5135097;27;20422;-56
2022/03/10 01:57:44;;;;;;;0.20;0.20;;;;;;;1.66;58.08;95286.97;5135575;27;21147;-56
2022/03/10 02:00:16;;;;;;;0.20;0.20;;;;;;;1.54;54.98;95291.28;5135139;27;20419;-56
2022/03/10 02:02:44;;;;;;;0.20;0.20;;;;;;;0.99;62.54;95202.34;5135521;27;20426;-56
2022/03/10 02:05:13;;;;;;;0.30;0.20;;;;;;;1.74;59.83;95286.69;5135061;27;20435;-56
2022/03/10 02:10:29;;;;;;;0.30;0.30;;;;;;;1.23;62.23;95276.47;5135517;27;20426;-56
2022/03/10 02:12:58;;;;;;;3.07;0.40;;;;;;;0.83;58.00;95281.16;5134926;27;20466;-56
2022/03/10 02:18:19;;;;;;;1.03;1.03;;;;;;;1.18;62.04;95290.16;5134701;27;20462;-56
2022/03/10 02:20:48;;;;;;;0.20;0.20;;;;;;;1.77;76.28;95276.59;5134775;27;20453;-56
2022/03/10 02:23:19;;;;;;;0.30;0.20;;;;;;;1.74;59.62;95287.50;5134731;27;20494;-56
2022/03/10 02:25:47;;;;;;;0.20;0.20;;;;;;;1.01;59.21;95273.38;5133364;27;20470;-56
2022/03/10 02:28:18;;;;;;;0.20;0.20;;;;;;;1.23;59.96;95292.13;5134919;27;20411;-56
2022/03/10 02:30:46;;;;;;;0.30;0.20;;;;;;;0.84;63.84;95290.56;5134757;27;20446;-56
2022/03/10 02:33:15;;;;;;;0.30;0.30;;;;;;;0.72;65.59;95288.81;5134472;27;20423;-56
2022/03/10 02:35:43;;;;;;;0.20;0.20;;;;;;;1.17;68.97;95292.97;5134301;27;20922;-56
2022/03/10 02:38:18;;;;;;;0.30;0.20;;;;;;;1.33;66.20;95300.28;5134309;27;20433;-56
2022/03/10 02:40:47;;;;;;;0.20;0.20;;;;;;;1.51;69.20;95292.50;5134663;27;20426;-56
2022/03/10 02:43:15;;;;;;;0.30;0.20;;;;;;;1.29;70.76;95304.34;5133770;27;20463;-56
2022/03/10 02:45:45;;;;;;;0.23;0.20;;;;;;;0.89;59.89;95305.56;5134244;27;20418;-56
2022/03/10 02:48:14;;;;;;;0.50;0.40;;;;;;;0.67;65.34;95299.88;5134181;27;20853;-56
2022/03/10 02:50:42;;;;;;;0.20;0.20;;;;;;;0.78;63.80;95299.25;5134182;27;20466;-56
2022/03/10 02:53:11;;;;;;;0.30;0.20;;;;;;;1.01;67.15;95303.91;5134068;27;20986;-56
2022/03/10 02:55:42;;;;;;;0.20;0.20;;;;;;;1.01;61.16;95301.31;5133726;27;20451;-56
2022/03/10 02:58:10;;;;;;;0.30;0.20;;;;;;;1.29;61.70;95307.72;5134264;27;20523;-56
2022/03/10 03:00:38;;;;;;;0.60;0.60;;;;;;;1.32;60.92;95301.28;5134139;27;20521;-56
2022/03/10 03:03:07;;;;;;;0.57;0.57;;;;;;;0.93;59.24;95306.78;5133566;27;20407;-56
2022/03/10 03:05:35;;;;;;;0.40;0.30;;;;;;;1.06;60.51;95291.81;5135402;27;20422;-56
2022/03/10 03:08:04;;;;;;;0.40;0.40;;;;;;;0.95;60.32;95305.56;5133744;27;20458;-56
2022/03/10 03:10:36;;;;;;;0.20;0.20;;;;;;;0.96;65.87;95306.38;5133683;27;20923;-56
2022/03/10 03:13:07;;;;;;;0.20;0.20;;;;;;;0.94;59.32;95296.13;5133671;27;20421;-56
2022/03/10 03:15:35;;;;;;;0.20;0.20;;;;;;;1.33;76.96;95302.91;5133838;27;20433;-56
2022/03/10 03:18:04;;;;;;;0.20;0.20;;;;;;;1.08;63.04;95300.25;5133367;27;20458;-56
2022/03/10 03:20:32;;;;;;;1.37;1.37;;;;;;;1.24;59.62;95304.16;5133516;27;20472;-56
2022/03/10 03:23:02;;;;;;;0.67;0.67;;;;;;;1.46;59.29;95304.59;5133394;27;20522;-56
2022/03/10 03:25:30;;;;;;;0.40;0.40;;;;;;;2.02;70.49;95305.31;5133440;27;20864;-56
2022/03/10 03:27:59;;;;;;;0.20;0.20;;;;;;;1.51;56.76;95297.75;5133327;27;20462;-56
2022/03/10 03:30:28;;;;;;;0.20;0.20;;;;;;;0.96;57.85;95298.53;5133464;27;20473;-56
2022/03/10 03:32:57;;;;;;;0.20;0.20;;;;;;;1.34;57.34;95296.69;5133215;27;20452;-55
2022/03/10 03:35:26;;;;;;;0.77;0.77;;;;;;;1.79;58.05;95297.28;5133583;27;20454;-55
2022/03/10 03:37:54;;;;;;;0.40;0.40;;;;;;;1.55;56.17;95285.03;5132430;27;20528;-55
2022/03/10 03:40:23;;;;;;;0.40;0.40;;;;;;;1.52;55.51;95288.09;5133177;27;20938;-55
2022/03/10 03:42:51;;;;;;;0.60;0.60;;;;;;;1.22;54.90;95293.13;5133143;27;20431;-55
2022/03/10 03:45:20;;;;;;;0.20;0.20;;;;;;;2.02;63.22;95284.41;5133006;27;20437;-56
2022/03/10 03:47:50;;;;;;;0.20;0.20;;;;;;;2.05;56.12;95289.19;5133424;27;20430;-56
2022/03/10 03:50:18;;;;;;;0.20;0.20;;;;;;;1.48;54.60;95284.28;5133028;27;20886;-56
2022/03/10 03:52:46;;;;;;;0.30;0.20;;;;;;;0.73;58.01;95296.47;5133020;27;20466;-56
2022/03/10 03:55:15;;;;;;;0.20;0.20;;;;;;;0.46;62.71;95300.16;5133247;27;20490;-55
2022/03/10 03:57:43;;;;;;;0.40;0.40;;;;;;;0.83;62.51;95298.59;5132872;27;20486;-55
2022/03/10 04:00:15;;;;;;;0.20;0.20;;;;;;;0.93;60.88;95297.16;5133035;27;20422;-55
2022/03/10 04:02:45;;;;;;;0.90;0.90;;;;;;;1.00;63.75;95299.69;5133193;27;20430;-55
2022/03/10 04:05:17;;;;;;;0.20;0.20;;;;;;;0.99;59.97;95295.47;5133171;28;20429;-55
2022/03/10 04:07:46;;;;;;;0.20;0.20;;;;;;;1.68;65.56;95300.59;5133138;28;20422;-56
2022/03/10 04:10:16;;;;;;;0.30;0.20;;;;;;;0.36;58.92;95240.66;5132715;27;20460;-56
2022/03/10 04:12:45;;;;;;;0.67;0.67;;;;;;;0.90;66.58;95308.00;5132982;28;20419;-56
2022/03/10 04:15:13;;;;;;;0.40;0.30;;;;;;;1.09;60.94;95301.03;5132427;28;20422;-56
2022/03/10 04:17:42;;;;;;;0.30;0.30;;;;;;;1.43;59.31;95299.81;5133702;28;21096;-56
2022/03/10 04:20:13;;;;;;;0.20;0.20;;;;;;;1.71;57.71;95303.59;5133822;27;20423;-56
2022/03/10 04:22:43;;;;;;;0.20;0.20;;;;;;;1.82;57.28;95302.09;5132976;28;20466;-56
2022/03/10 04:25:12;;;;;;;0.40;0.40;;;;;;;2.10;60.83;95299.78;5134095;28;20426;-56
2022/03/10 04:27:41;;;;;;;0.30;0.20;;;;;;;2.18;55.15;95302.13;5133462;28;20911;-56
2022/03/10 04:30:11;;;;;;;0.20;0.20;;;;;;;1.91;56.56;95301.59;5133566;27;20809;-57
2022/03/10 04:32:42;;;;;;;0.20;0.20;;;;;;;1.85;56.22;95301.66;5132854;28;20443;-55
2022/03/10 04:35:12;;;;;;;0.30;0.23;;;;;;;2.06;55.43;95311.69;5133432;28;20419;-55
2022/03/10 04:37:40;;;;;;;0.47;0.47;;;;;;;1.47;54.03;95303.59;5132630;28;20485;-56
2022/03/10 04:40:12;;;;;;;0.20;0.20;;;;;;;1.71;53.70;95314.03;5133901;28;20451;-56
2022/03/10 04:42:42;;;;;;;0.20;0.20;;;;;;;1.58;54.36;95308.94;5135066;27;20419;-56
2022/03/10 04:45:11;;;;;;;4.73;2.27;;;;;;;1.40;55.11;95302.84;5134311;28;20430;-56
2022/03/10 04:47:41;;;;;;;0.80;0.77;;;;;;;1.71;54.61;95315.84;5133989;27;20431;-55
2022/03/10 04:50:12;;;;;;;0.37;0.37;;;;;;;1.52;54.21;95314.22;5135663;27;20436;-56
2022/03/10 04:52:41;;;;;;;0.50;0.50;;;;;;;1.23;52.93;95310.41;5137764;27;20957;-55
2022/03/10 04:55:12;;;;;;;0.20;0.20;;;;;;;1.09;53.28;95324.53;5136692;27;20419;-56
2022/03/10 04:57:42;;;;;;;0.20;0.20;;;;;;;1.25;53.92;95326.66;5136784;27;20477;-56
2022/03/10 05:00:12;;;;;;;0.20;0.20;;;;;;;0.94;52.16;95324.81;5136815;27;20446;-55
2022/03/10 05:02:41;;;;;;;0.20;0.20;;;;;;;-0.41;54.56;95102.75;5136503;27;20426;-56
2022/03/10 05:05:12;;;;;;;0.30;0.20;;;;;;;1.51;52.70;95331.69;5136284;27;20423;-56
2022/03/10 05:07:41;;;;;;;0.20;0.20;;;;;;;1.29;52.67;95338.28;5136612;27;20852;-57
2022/03/10 05:10:13;;;;;;;0.30;0.20;;;;;;;1.57;52.81;95316.97;5138571;27;20415;-55
2022/03/10 05:12:49;;;;;;;0.20;0.20;;;;;;;1.58;51.55;95362.97;5138514;27;20434;-56
2022/03/10 05:15:21;;;;;;;0.20;0.20;;;;;;;1.64;52.38;95346.47;5138248;27;20414;-55
2022/03/10 05:17:51;;;;;;;0.20;0.20;;;;;;;1.25;55.85;95353.56;5137801;27;20462;-56
2022/03/10 05:20:19;;;;;;;0.20;0.20;;;;;;;0.46;63.00;95368.75;5138166;27;20965;-56
2022/03/10 05:22:50;;;;;;;0.30;0.20;;;;;;;0.36;68.01;95370.19;5136016;27;20481;-57
2022/03/10 05:25:22;;;;;;;0.20;0.20;;;;;;;0.02;68.31;95319.19;5137069;27;20422;-57
2022/03/10 05:27:52;;;;;;;0.20;0.20;;;;;;;0.82;66.20;95389.09;5136777;27;20435;-56
2022/03/10 05:30:21;;;;;;;0.30;0.30;;;;;;;1.09;64.59;95379.34;5136331;27;20418;-56
2022/03/10 05:32:51;;;;;;;0.33;0.33;;;;;;;1.12;62.39;95400.59;5135945;27;20426;-56
2022/03/10 05:35:20;;;;;;;0.20;0.20;;;;;;;1.57;59.02;95392.72;5135540;27;20509;-56
2022/03/10 05:37:49;;;;;;;0.30;0.20;;;;;;;1.01;59.35;95392.66;5134502;27;20531;-56
2022/03/10 05:40:21;;;;;;;0.20;0.20;;;;;;;1.23;57.84;95393.94;5134947;27;20830;-56
2022/03/10 05:42:53;;;;;;;0.30;0.30;;;;;;;1.31;57.07;95411.97;5134426;27;20505;-59
2022/03/10 05:45:22;;;;;;;0.20;0.20;;;;;;;0.07;56.95;95285.50;5134786;27;20449;-56
2022/03/10 05:47:52;;;;;;;0.93;0.60;;;;;;;1.34;60.87;95442.09;5135083;27;20439;-57
2022/03/10 05:50:22;;;;;;;0.43;0.43;;;;;;;1.26;56.26;95430.06;5135801;27;20438;-59
2022/03/10 05:52:51;;;;;;;0.20;0.20;;;;;;;1.61;55.01;95438.31;5136179;27;20458;-56
2022/03/10 05:55:23;;;;;;;0.20;0.20;;;;;;;1.38;55.05;95425.78;5135803;27;20918;-56
2022/03/10 05:57:52;;;;;;;1.67;0.50;;;;;;;1.48;54.69;95446.22;5135486;27;20470;-57
2022/03/10 06:00:21;;;;;;;0.30;0.20;;;;;;;1.62;54.18;95464.19;5134826;27;20419;-56
2022/03/10 06:02:49;;;;;;;0.30;0.30;;;;;;;1.39;55.02;95458.72;5135777;27;20423;-56
2022/03/10 06:05:18;;;;;;;0.30;0.20;;;;;;;1.50;55.27;95465.06;5135169;27;20513;-57
2022/03/10 06:07:50;;;;;;;0.30;0.20;;;;;;;0.76;55.03;95451.75;5135657;27;20425;-56
2022/03/10 06:10:19;;;;;;;1.53;0.80;;;;;;;1.51;56.13;95471.91;5135955;27;20434;-57
2022/03/10 06:12:52;;;;;;;0.77;0.77;;;;;;;1.54;54.26;95476.72;5136704;27;20452;-57
2022/03/10 06:15:22;;;;;;;0.20;0.20;;;;;;;1.80;52.21;95479.16;5135737;27;20439;-58
2022/03/10 06:17:52;;;;;;;0.20;0.20;;;;;;;1.84;49.97;95459.47;5135663;27;20466;-57
2022/03/10 06:20:21;;;;;;;0.40;0.40;;;;;;;2.37;49.81;95475.53;5135195;27;20509;-57
2022/03/10 06:22:49;;;;;;;0.90;0.90;;;;;;;2.27;49.07;95476.03;5134882;27;20481;-57
2022/03/10 06:25:19;;;;;;;2.20;2.20;;;;;;;2.52;48.79;95476.00;5135030;27;21152;-56
2022/03/10 06:27:48;;;;;;;2.03;2.03;;;;;;;2.60;48.14;95478.34;5136224;27;20423;-57
2022/03/10 06:30:21;;;;;;;0.20;0.20;;;;;;;2.74;47.11;95481.63;5135477;27;20422;-58
2022/03/10 06:32:50;;;;;;;1.60;1.50;;;;;;;3.45;43.84;95440.75;5135646;27;20427;-57
2022/03/10 06:35:19;;;;;;;0.80;0.80;;;;;;;4.01;42.71;95479.69;5134100;27;20462;-58
2022/03/10 06:37:47;;;;;;;0.60;0.53;;;;;;;4.27;40.05;95458.31;5134392;27;20493;-57
2022/03/10 06:40:16;;;;;;;0.30;0.30;;;;;;;4.75;40.57;95468.59;5133925;27;20510;-58
2022/03/10 06:42:44;;;;;;;0.50;0.50;;;;;;;4.16;41.27;95471.38;5134090;27;20911;-57
2022/03/10 06:45:14;;;;;;;0.47;0.40;;;;;;;4.12;40.84;95478.13;5134192;27;20444;-57
2022/03/10 06:47:44;;;;;;;0.30;0.20;;;;;;;4.70;40.94;95476.34;5133851;27;20501;-57
2022/03/10 06:50:16;;;;;;;0.30;0.30;;;;;;;4.46;40.46;95487.84;5134033;27;20438;-56
2022/03/10 06:52:44;;;;;;;0.30;0.20;;;;;;;4.99;38.07;95387.94;5133546;27;20485;-57
2022/03/10 06:55:12;;;;;;;0.30;0.30;;;;;;;5.35;36.14;95478.78;5133824;27;20467;-56
2022/03/10 06:57:41;;;;;;;0.30;0.20;;;;;;;4.74;36.42;95472.22;5133144;27;20514;-55
2022/03/10 07:00:11;;;;;;;0.47;0.30;;;;;;;6.38;34.99;95477.56;5133692;27;20488;-54
2022/03/10 07:02:39;;;;;;;0.30;0.20;;;;;;;6.69;34.24;95492.00;5134423;27;20835;-54
2022/03/10 07:05:10;;;;;;;0.30;0.30;;;;;;;7.06;31.29;95479.09;5132364;27;20438;-54
2022/03/10 07:07:39;;;;;;;0.30;0.30;;;;;;;7.44;32.03;95484.34;5133931;27;20498;-53
2022/03/10 07:10:09;;;;;;;0.30;0.30;;;;;;;8.02;31.11;95474.97;5133824;27;20513;-53
2022/03/10 07:12:41;;;;;;;0.60;0.60;;;;;;;8.30;30.78;95478.16;5132613;27;20422;-52
2022/03/10 07:15:14;;;;;;;0.60;0.40;;;;;;;8.20;30.97;95478.03;5133953;27;20509;-52
2022/03/10 07:17:44;;;;;;;4.20;0.67;;;;;;;8.90;32.16;95482.34;5133936;27;20525;-52
2022/03/10 07:20:15;;;;;;;0.43;0.43;;;;;;;8.69;29.25;95480.59;5133097;27;20891;-54
2022/03/10 07:22:43;;;;;;;0.40;0.30;;;;;;;6.82;31.34;95496.94;5133154;27;20548;-54
2022/03/10 07:25:12;;;;;;;0.53;0.40;;;;;;;7.04;30.79;95452.97;5132645;27;20849;-54
2022/03/10 07:27:41;;;;;;;0.30;0.30;;;;;;;7.65;31.79;95461.63;5133160;27;20946;-54
2022/03/10 07:30:10;;;;;;;0.40;0.40;;;;;;;7.56;30.08;95514.00;5133385;27;20418;-52
2022/03/10 07:32:38;;;;;;;0.80;0.80;;;;;;;6.72;31.25;95501.25;5133230;27;20430;-53
2022/03/10 07:35:07;;;;;;;0.43;0.30;;;;;;;5.73;31.82;95492.16;5132881;27;20513;-53
2022/03/10 07:37:39;;;;;;;1.40;0.50;;;;;;;6.80;32.45;95490.31;5132973;27;20466;-54
2022/03/10 07:40:09;;;;;;;0.30;0.20;;;;;;;5.50;30.87;95406.28;5132013;27;20478;-54
2022/03/10 07:42:38;;;;;;;0.90;0.80;;;;;;;6.52;32.14;95471.97;5133035;27;20431;-53
2022/03/10 07:45:07;;;;;;;0.30;0.20;;;;;;;6.71;31.54;95470.66;5132488;27;20434;-54
2022/03/10 07:47:37;;;;;;;0.40;0.30;;;;;;;7.27;30.30;95499.41;5132968;27;20454;-55
2022/03/10 07:50:07;;;;;;;0.40;0.23;;;;;;;8.00;42.89;95498.16;5133265;27;20423;-55
2022/03/10 07:52:38;;;;;;;0.57;0.57;;;;;;;8.75;28.00;95480.38;5132684;27;20511;-57
2022/03/10 07:55:08;;;;;;;0.70;0.70;;;;;;;9.01;27.46;95488.47;5133193;27;20426;-57
2022/03/10 07:57:37;;;;;;;0.47;0.47;;;;;;;7.26;29.30;95468.03;5133573;27;20465;-57
2022/03/10 08:00:07;;;;;;;0.50;0.50;;;;;;;7.75;28.61;95482.84;5136014;27;20482;-58
2022/03/10 08:02:36;;;;;;;0.40;0.30;;;;;;;8.11;29.78;95486.66;5135170;28;20868;-58
2022/03/10 08:05:09;;;;;;;0.40;0.30;;;;;;;7.20;30.17;95495.34;5135680;28;20441;-59
2022/03/10 08:07:39;;;;;;;0.30;0.20;;;;;;;7.49;29.27;95508.13;5135443;28;20422;-61
2022/03/10 08:10:12;;;;;;;0.40;0.30;;;;;;;6.72;29.32;95494.16;5134675;28;20431;-60
2022/03/10 08:12:40;;;;;;;0.70;0.70;;;;;;;7.24;34.35;95510.44;5135160;27;20422;-60
2022/03/10 08:15:10;;;;;;;0.53;0.53;;;;;;;6.76;29.48;95494.44;5135042;28;20434;-61
2022/03/10 08:17:39;;;;;;;0.30;0.20;;;;;;;7.62;28.61;95513.03;5133068;28;20543;-61
2022/03/10 08:20:08;;;;;;;0.30;0.20;;;;;;;6.65;28.86;95474.28;5132197;27;21012;-62
2022/03/10 08:22:37;;;;;;;0.30;0.20;;;;;;;7.31;29.42;95518.97;5132421;27;20570;-62
2022/03/10 08:25:08;;;;;;;1.23;0.50;;;;;;;8.22;28.22;95517.41;5139038;27;20966;-61
2022/03/10 08:27:36;;;;;;;1.17;0.30;;;;;;;8.16;28.26;95499.91;5137499;27;20521;-60
2022/03/10 08:30:08;;;;;;;0.30;0.20;;;;;;;8.54;28.06;95523.53;5137432;27;20855;-62
2022/03/10 08:32:36;;;;;;;0.30;0.20;;;;;;;8.62;35.10;95491.38;5139522;27;20434;-61
2022/03/10 08:35:05;;;;;;;0.30;0.30;;;;;;;8.45;27.78;95522.38;5136215;27;20494;-61
2022/03/10 08:37:34;;;;;;;0.30;0.30;;;;;;;9.22;29.07;95514.81;5136293;27;20847;-61
2022/03/10 08:40:02;;;;;;;0.40;0.40;;;;;;;8.69;28.42;95521.03;5136519;27;20524;-61
2022/03/10 08:42:32;;;;;;;0.50;0.30;;;;;;;9.42;28.43;95520.19;5136529;27;20494;-61
2022/03/10 08:45:00;;;;;;;0.30;0.20;;;;;;;8.93;27.67;95514.34;5136203;27;20458;-59
2022/03/10 08:47:30;;;;;;;0.30;0.30;;;;;;;9.10;27.80;95518.69;5136483;27;20435;-59
2022/03/10 08:49:58;;;;;;;0.30;0.23;;;;;;;9.84;27.54;95517.47;5135929;27;20434;-60
2022/03/10 08:52:27;;;;;;;0.30;0.30;;;;;;;9.81;26.97;95518.00;5136202;27;20509;-60
2022/03/10 08:54:55;;;;;;;0.40;0.30;;;;;;;11.66;31.14;95530.84;5136187;27;20466;-60
2022/03/10 08:57:23;;;;;;;0.30;0.23;;;;;;;9.65;26.86;95526.94;5136361;27;20426;-60
2022/03/10 08:59:53;;;;;;;0.50;0.30;;;;;;;10.08;27.26;95509.88;5135841;27;20470;-59
2022/03/10 09:02:23;;;;;;;0.30;0.20;;;;;;;9.63;25.64;95518.47;5135888;27;20431;-58
2022/03/10 09:04:52;;;;;;;0.30;0.20;;;;;;;9.56;25.95;95515.25;5136254;27;20430;-59
2022/03/10 09:07:20;;;;;;;0.40;0.30;;;;;;;10.05;26.11;95524.44;5136069;27;20449;-58
2022/03/10 09:09:48;;;;;;;0.30;0.20;;;;;;;10.36;27.67;95512.09;5135481;27;20533;-58
2022/03/10 09:12:17;;;;;;;0.30;0.23;;;;;;;9.17;24.98;95524.53;5135387;27;20920;-58
2022/03/10 09:14:45;;;;;;;0.40;0.40;;;;;;;9.50;26.08;95518.91;5135938;27;20982;-58
2022/03/10 09:17:19;;;;;;;0.43;0.30;;;;;;;9.55;26.08;95521.59;5135055;27;20458;-58
2022/03/10 09:19:49;;;;;;;0.30;0.20;;;;;;;9.24;26.06;95527.75;5135152;27;20470;-57
2022/03/10 09:22:17;;;;;;;0.40;0.30;;;;;;;9.89;26.45;95506.13;5135384;27;20493;-58
2022/03/10 09:24:46;;;;;;;0.40;0.40;;;;;;;9.95;24.79;95526.25;5135041;27;20958;-63
2022/03/10 09:27:15;;;;;;;0.30;0.23;;;;;;;9.34;24.19;95522.53;5135499;27;20426;-58
2022/03/10 09:29:43;;;;;;;0.30;0.30;;;;;;;9.16;28.57;95528.25;5134759;27;20919;-59
2022/03/10 09:32:12;;;;;;;0.30;0.20;;;;;;;8.54;28.44;95533.31;5135025;27;20434;-59
2022/03/10 09:34:43;;;;;;;0.50;0.50;;;;;;;7.63;28.37;95521.75;5134827;27;20510;-58
2022/03/10 09:37:11;;;;;;;0.40;0.40;;;;;;;9.02;34.41;95532.38;5135629;27;20450;-58
2022/03/10 09:39:40;;;;;;;0.30;0.30;;;;;;;10.05;25.65;95527.09;5134599;27;20513;-58
2022/03/10 09:42:11;;;;;;;0.43;0.40;;;;;;;11.18;23.52;95529.63;5135098;27;20418;-59
2022/03/10 09:44:43;;;;;;;0.50;0.30;;;;;;;10.39;23.90;95538.06;5136884;27;20847;-59
2022/03/10 09:47:11;;;;;;;0.30;0.20;;;;;;;9.61;25.99;95533.00;5135407;27;20427;-59
2022/03/10 09:49:40;;;;;;;0.37;0.30;;;;;;;9.98;24.04;95533.69;5134955;27;20855;-58
2022/03/10 09:52:13;;;;;;;0.40;0.30;;;;;;;8.53;24.79;95547.56;5134969;27;20497;-58
2022/03/10 09:54:42;;;;;;;0.30;0.20;;;;;;;7.72;25.64;95551.13;5134940;27;20930;-53
2022/03/10 09:57:11;;;;;;;0.30;0.20;;;;;;;8.64;25.84;95539.50;5134777;27;20461;-53
2022/03/10 09:59:48;;;;;;;1.27;0.40;;;;;;;10.47;23.34;95536.75;5133567;27;20465;-53
2022/03/10 10:02:17;;;;;;;0.50;0.50;;;;;;;9.41;24.30;95531.81;5134237;27;20943;-53
2022/03/10 10:04:48;;;;;;;0.40;0.30;;;;;;;10.32;24.54;95526.13;5134119;27;20434;-53
2022/03/10 10:07:21;;;;;;;0.40;0.40;;;;;;;12.53;23.09;95525.66;5133954;27;20430;-53
2022/03/10 10:09:53;;;;;;;0.30;0.20;;;;;;;10.07;23.88;95513.56;5134470;27;20426;-53
2022/03/10 10:12:26;;;;;;;0.30;0.20;;;;;;;10.41;24.50;95519.25;5134056;27;20426;-53
2022/03/10 10:14:56;;;;;;;0.30;0.20;;;;;;;10.81;23.48;95522.72;5134489;27;20457;-52
2022/03/10 10:17:29;;;;;;;0.40;0.30;;;;;;;10.19;24.95;95535.38;5134397;27;20419;-53
2022/03/10 10:20:18;;;;;;;0.40;0.30;;;;;;;8.82;25.81;95533.81;5133870;27;21189;-53
2022/03/10 10:22:48;;;;;;;2.97;0.40;;;;;;;9.05;24.43;95527.38;5133980;27;20986;-53
2022/03/10 10:25:21;;;;;;;0.30;0.20;;;;;;;9.28;25.64;95534.94;5133979;27;20431;-53
2022/03/10 10:27:50;;;;;;;0.40;0.40;;;;;;;8.58;25.68;95548.41;5134303;27;20514;-53
2022/03/10 10:30:18;;;;;;;0.40;0.40;;;;;;;8.34;25.83;95546.31;5134128;27;20458;-54
2022/03/10 10:32:52;;;;;;;0.30;0.20;;;;;;;7.21;25.91;95547.03;5133000;27;20437;-53
2022/03/10 10:35:21;;;;;;;0.40;0.30;;;;;;;8.40;26.79;95547.97;5133441;27;20422;-53
2022/03/10 10:37:56;;;;;;;0.47;0.40;;;;;;;8.39;26.60;95546.38;5134037;27;20513;-54
2022/03/10 10:40:27;;;;;;;0.80;0.53;;;;;;;9.58;22.60;95535.13;5134184;27;20466;-54
2022/03/10 10:42:56;;;;;;;0.53;0.53;;;;;;;10.38;22.82;95536.47;5133535;27;20426;-54
2022/03/10 10:45:29;;;;;;;0.40;0.40;;;;;;;9.84;22.13;95543.94;5133831;27;20457;-54
2022/03/10 10:47:59;;;;;;;0.30;0.20;;;;;;;9.07;25.41;95548.28;5132917;27;20463;-54
2022/03/10 10:50:30;;;;;;;0.30;0.30;;;;;;;8.93;26.93;95546.06;5133631;27;20428;-54
2022/03/10 10:53:00;;;;;;;0.30;0.30;;;;;;;7.53;27.50;95548.81;5132950;27;20522;-54
2022/03/10 10:55:33;;;;;;;0.30;0.20;;;;;;;7.29;28.48;95551.88;5133718;27;20458;-56
2022/03/10 10:58:09;;;;;;;0.40;0.40;;;;;;;7.22;27.59;95544.16;5132904;27;20846;-55
2022/03/10 11:00:43;;;;;;;0.30;0.20;;;;;;;7.20;27.70;95546.25;5133434;27;20465;-55
2022/03/10 11:03:23;;;;;;;0.30;0.20;;;;;;;8.69;26.33;95534.25;5132826;27;20428;-56
2022/03/10 11:05:53;;;;;;;0.33;0.30;;;;;;;9.85;27.30;95527.00;5132367;27;20438;-56
2022/03/10 11:08:31;;;;;;;0.30;0.30;;;;;;;8.73;26.86;95542.44;5150366;27;20557;-55
2022/03/10 11:11:00;;;;;;;0.40;0.40;;;;;;;6.98;27.10;95555.94;5150672;27;20456;-55
2022/03/10 11:13:29;;;;;;;0.30;0.20;;;;;;;6.36;27.12;95555.97;5150089;27;20595;-55
2022/03/10 11:15:58;;;;;;;0.30;0.20;;;;;;;7.15;27.58;95561.97;5150155;27;20486;-54
2022/03/10 11:18:28;;;;;;;0.30;0.20;;;;;;;8.85;26.79;95543.88;5150229;27;20432;-55
2022/03/10 11:21:10;;;;;;;0.80;0.80;;;;;;;10.39;24.59;95542.56;5150103;27;20977;-58
2022/03/10 11:23:50;;;;;;;0.30;0.20;;;;;;;9.86;24.69;95544.50;5150168;27;20498;-56
2022/03/10 11:26:24;;;;;;;0.30;0.20;;;;;;;11.85;22.46;95542.47;5149982;27;20436;-54
2022/03/10 11:28:55;;;;;;;0.50;0.40;;;;;;;10.94;23.85;95524.06;5149696;27;20468;-54
2022/03/10 11:31:24;;;;;;;0.40;0.30;;;;;;;9.86;21.72;95528.63;5150195;27;20433;-54
2022/03/10 11:33:52;;;;;;;0.70;0.70;;;;;;;7.85;23.88;95537.56;5149724;27;20853;-56
2022/03/10 11:36:23;;;;;;;0.30;0.30;;;;;;;7.41;28.21;95542.81;5150096;27;20422;-56
2022/03/10 11:38:54;;;;;;;0.40;0.30;;;;;;;8.03;26.13;95537.25;5149923;27;20457;-55
2022/03/10 11:41:25;;;;;;;0.30;0.20;;;;;;;7.79;26.92;95538.56;5149379;27;20426;-56
2022/03/10 11:43:59;;;;;;;0.57;0.53;;;;;;;7.41;24.23;95542.81;5149285;27;20904;-55
2022/03/10 11:46:29;;;;;;;0.30;0.20;;;;;;;6.56;25.46;95537.06;5149226;27;20429;-54
2022/03/10 11:49:06;;;;;;;0.70;0.70;;;;;;;7.81;24.10;95536.47;5149745;27;20798;-54
2022/03/10 11:51:46;;;;;;;1.27;1.27;;;;;;;7.98;24.48;95532.72;5149956;27;20504;-54
2022/03/10 11:54:19;;;;;;;0.30;0.20;;;;;;;6.12;28.73;95536.03;5149696;27;20990;-54
2022/03/10 11:57:06;;;;;;;0.50;0.30;;;;;;;5.64;32.29;95546.94;5149907;27;20508;-53
2022/03/10 11:59:47;;;;;;;3.33;0.70;;;;;;;5.23;32.52;95551.59;5149429;27;20429;-52